createdAt,value
2019-05-02T00:01:36.190Z,100.00
2019-05-02T00:04:05.300Z,100.00
2019-05-02T00:06:38.046Z,100.00
2019-05-02T00:09:09.156Z,100.00
2019-05-02T00:11:37.898Z,100.00
2019-05-02T00:14:07.506Z,100.00
2019-05-02T00:16:36.080Z,100.00
2019-05-02T00:19:09.274Z,100.00
2019-05-02T00:21:38.218Z,100.00
2019-05-02T00:24:07.605Z,100.00
2019-05-02T00:26:36.193Z,100.00
2019-05-02T00:29:04.825Z,100.00
2019-05-02T00:31:33.469Z,100.00
2019-05-02T00:34:02.098Z,100.00
2019-05-02T00:36:30.747Z,100.00
2019-05-02T00:38:59.385Z,100.00
2019-05-02T00:41:27.961Z,100.00
2019-05-02T00:43:56.459Z,100.00
2019-05-02T00:46:25.093Z,100.00
2019-05-02T00:48:59.856Z,100.00
2019-05-02T00:51:26.767Z,100.00
2019-05-02T00:53:56.093Z,100.00
2019-05-02T00:56:24.708Z,100.00
2019-05-02T00:58:53.351Z,100.00
2019-05-02T01:01:31.021Z,100.00
2019-05-02T01:04:07.514Z,100.00
2019-05-02T01:06:36.468Z,100.00
2019-05-02T01:09:10.968Z,100.00
2019-05-02T01:11:40.506Z,100.00
2019-05-02T01:14:09.145Z,100.00
2019-05-02T01:16:37.783Z,100.00
2019-05-02T01:19:06.423Z,100.00
2019-05-02T01:21:38.837Z,100.00
2019-05-02T01:24:05.441Z,100.00
2019-05-02T01:26:35.645Z,100.00
2019-05-02T01:29:11.624Z,100.00
2019-05-02T01:31:54.706Z,100.00
2019-05-02T01:34:34.819Z,100.00
2019-05-02T01:37:12.419Z,100.00
2019-05-02T01:39:42.683Z,100.00
2019-05-02T01:42:08.698Z,100.00
2019-05-02T01:44:37.994Z,100.00
2019-05-02T01:47:06.662Z,100.00
2019-05-02T01:49:35.273Z,100.00
2019-05-02T01:52:03.915Z,100.00
2019-05-02T01:54:32.450Z,100.00
2019-05-02T01:57:03.932Z,100.00
2019-05-02T01:59:34.005Z,100.00
2019-05-02T02:02:01.707Z,100.00
2019-05-02T02:04:30.392Z,100.00
2019-05-02T02:06:58.953Z,100.00
2019-05-02T02:09:27.598Z,100.00
2019-05-02T02:11:56.240Z,100.00
2019-05-02T02:14:24.801Z,100.00
2019-05-02T02:16:53.454Z,100.00
2019-05-02T02:19:23.738Z,100.00
2019-05-02T02:22:10.319Z,100.00
2019-05-02T02:24:46.555Z,100.00
2019-05-02T02:27:15.191Z,100.00
2019-05-02T02:29:44.405Z,100.00
2019-05-02T02:32:20.181Z,100.00
2019-05-02T02:34:44.340Z,100.00
2019-05-02T02:37:15.195Z,100.00
2019-05-02T02:39:48.412Z,100.00
2019-05-02T02:42:13.583Z,100.00
2019-05-02T02:44:46.563Z,100.00
2019-05-02T02:47:18.879Z,100.00
2019-05-02T02:49:45.505Z,100.00
2019-05-02T02:52:14.131Z,100.00
2019-05-02T02:54:44.777Z,100.00
2019-05-02T02:57:21.927Z,100.00
2019-05-02T02:59:43.435Z,100.00
2019-05-02T03:02:12.400Z,100.00
2019-05-02T03:04:44.013Z,100.00
2019-05-02T03:07:11.529Z,100.00
2019-05-02T03:09:40.201Z,100.00
2019-05-02T03:12:22.342Z,100.00
2019-05-02T03:14:52.663Z,100.00
2019-05-02T03:17:26.449Z,100.00
2019-05-02T03:19:54.399Z,100.00
2019-05-02T03:22:22.001Z,100.00
2019-05-02T03:24:50.571Z,100.00
2019-05-02T03:27:19.224Z,100.00
2019-05-02T03:29:47.780Z,100.00
2019-05-02T03:32:32.250Z,100.00
2019-05-02T03:34:52.225Z,100.00
2019-05-02T03:37:17.755Z,100.00
2019-05-02T03:39:49.679Z,100.00
2019-05-02T03:42:16.681Z,100.00
2019-05-02T03:44:55.216Z,100.00
2019-05-02T03:47:15.619Z,100.00
2019-05-02T03:49:48.969Z,100.00
2019-05-02T03:52:14.819Z,100.00
2019-05-02T03:54:50.029Z,100.00
2019-05-02T03:57:13.750Z,100.00
2019-05-02T03:59:42.429Z,100.00
2019-05-02T04:02:13.899Z,100.00
2019-05-02T04:04:41.520Z,100.00
2019-05-02T04:07:10.195Z,100.00
2019-05-02T04:09:42.234Z,100.00
2019-05-02T04:12:18.721Z,100.00
2019-05-02T04:14:39.815Z,100.00
2019-05-02T04:17:10.465Z,100.00
2019-05-02T04:19:39.700Z,100.00
2019-05-02T04:22:11.883Z,100.00
2019-05-02T04:24:39.672Z,100.00
2019-05-02T04:27:08.346Z,100.00
2019-05-02T04:29:37.421Z,100.00
2019-05-02T04:32:11.619Z,100.00
2019-05-02T04:34:36.379Z,100.00
2019-05-02T04:37:05.030Z,100.00
2019-05-02T04:39:33.659Z,100.00
2019-05-02T04:42:05.324Z,100.00
2019-05-02T04:44:43.597Z,100.00
2019-05-02T04:47:11.048Z,100.00
2019-05-02T04:49:36.002Z,100.00
2019-05-02T04:52:07.870Z,100.00
2019-05-02T04:54:34.036Z,100.00
2019-05-02T04:57:08.587Z,100.00
2019-05-02T04:59:36.000Z,100.00
2019-05-02T05:02:04.724Z,100.00
2019-05-02T05:04:42.001Z,100.00
2019-05-02T05:07:03.671Z,100.00
2019-05-02T05:09:32.181Z,100.00
2019-05-02T05:12:02.566Z,100.00
2019-05-02T05:14:38.181Z,100.00
2019-05-02T05:17:01.470Z,100.00
2019-05-02T05:19:32.739Z,100.00
2019-05-02T05:22:04.962Z,100.00
2019-05-02T05:24:42.168Z,100.00
2019-05-02T05:27:13.109Z,100.00
2019-05-02T05:29:38.812Z,100.00
2019-05-02T05:32:10.047Z,100.00
2019-05-02T05:34:38.046Z,100.00
2019-05-02T05:37:13.367Z,100.00
2019-05-02T05:39:42.914Z,100.00
2019-05-02T05:42:10.708Z,100.00
2019-05-02T05:44:39.867Z,100.00
2019-05-02T05:47:12.197Z,100.00
2019-05-02T05:49:38.843Z,100.00
2019-05-02T05:52:08.028Z,100.00
2019-05-02T05:54:38.412Z,100.00
2019-05-02T05:57:07.655Z,100.00
2019-05-02T05:59:38.032Z,100.00
2019-05-02T06:02:13.217Z,100.00
2019-05-02T06:04:38.740Z,100.00
2019-05-02T06:07:07.542Z,100.00
2019-05-02T06:09:36.158Z,100.00
2019-05-02T06:12:04.900Z,100.00
2019-05-02T06:14:34.586Z,100.00
2019-05-02T06:17:03.279Z,100.00
2019-05-02T06:19:32.050Z,100.00
2019-05-02T06:22:00.629Z,100.00
2019-05-02T06:24:29.200Z,100.00
2019-05-02T06:27:00.643Z,96.70
2019-05-02T06:29:29.204Z,97.50
2019-05-02T06:32:02.539Z,93.48
2019-05-02T06:34:31.180Z,89.88
2019-05-02T06:37:00.156Z,85.47
2019-05-02T06:39:31.952Z,87.20
2019-05-02T06:42:00.807Z,84.21
2019-05-02T06:44:29.518Z,82.61
2019-05-02T06:46:59.127Z,83.36
2019-05-02T06:49:28.559Z,80.42
2019-05-02T06:51:57.721Z,79.01
2019-05-02T06:54:26.377Z,79.01
2019-05-02T06:56:55.217Z,79.49
2019-05-02T06:59:23.857Z,78.99
2019-05-02T07:01:57.463Z,76.36
2019-05-02T07:04:24.877Z,74.20
2019-05-02T07:06:58.476Z,73.25
2019-05-02T07:09:23.997Z,75.93
2019-05-02T07:11:57.347Z,77.15
2019-05-02T07:14:24.067Z,73.09
2019-05-02T07:16:56.520Z,71.51
2019-05-02T07:19:29.194Z,68.32
2019-05-02T07:21:58.401Z,71.81
2019-05-02T07:24:30.577Z,67.35
2019-05-02T07:26:58.133Z,59.04
2019-05-02T07:29:26.852Z,56.67
2019-05-02T07:31:55.421Z,55.17
2019-05-02T07:34:24.110Z,53.15
2019-05-02T07:36:52.791Z,50.83
2019-05-02T07:39:21.525Z,48.83
2019-05-02T07:41:50.198Z,51.04
2019-05-02T07:44:18.901Z,47.73
2019-05-02T07:46:51.809Z,44.72
2019-05-02T07:49:20.657Z,43.93
2019-05-02T07:51:52.312Z,41.26
2019-05-02T07:54:19.303Z,44.14
2019-05-02T07:56:53.432Z,43.85
2019-05-02T07:59:23.434Z,43.96
2019-05-02T08:01:50.906Z,41.40
2019-05-02T08:04:19.659Z,40.53
2019-05-02T08:06:48.299Z,38.78
2019-05-02T08:09:16.954Z,38.03
2019-05-02T08:11:45.503Z,36.22
2019-05-02T08:14:14.192Z,34.71
2019-05-02T08:16:42.687Z,33.72
2019-05-02T08:19:11.266Z,35.63
2019-05-02T08:21:39.898Z,33.60
2019-05-02T08:24:08.558Z,32.96
2019-05-02T08:26:38.820Z,32.73
2019-05-02T08:29:09.038Z,33.72
2019-05-02T08:31:37.604Z,36.08
2019-05-02T08:34:14.617Z,34.46
2019-05-02T08:36:39.294Z,31.95
2019-05-02T08:39:08.043Z,32.88
2019-05-02T08:41:36.616Z,31.42
2019-05-02T08:44:05.398Z,32.21
2019-05-02T08:46:34.077Z,35.21
2019-05-02T08:49:02.586Z,36.22
2019-05-02T08:51:31.146Z,37.74
2019-05-02T08:53:59.722Z,37.97
2019-05-02T08:56:28.295Z,38.82
2019-05-02T08:58:56.937Z,39.56
2019-05-02T09:01:34.816Z,40.19
2019-05-02T09:03:57.038Z,40.60
2019-05-02T09:06:25.816Z,40.30
2019-05-02T09:08:54.504Z,38.97
2019-05-02T09:11:23.155Z,38.73
2019-05-02T09:13:52.577Z,38.66
2019-05-02T09:16:28.394Z,38.74
2019-05-02T09:18:54.078Z,37.18
2019-05-02T09:21:22.101Z,36.32
2019-05-02T09:23:51.737Z,32.56
2019-05-02T09:26:33.265Z,29.93
2019-05-02T09:28:51.695Z,30.46
2019-05-02T09:31:22.504Z,30.45
2019-05-02T09:33:52.072Z,31.72
2019-05-02T09:36:22.743Z,29.12
2019-05-02T09:38:55.899Z,28.56
2019-05-02T09:41:22.252Z,27.34
2019-05-02T09:43:52.384Z,27.79
2019-05-02T09:46:21.744Z,27.02
2019-05-02T09:48:51.967Z,29.33
2019-05-02T09:51:21.640Z,30.44
2019-05-02T09:53:52.384Z,31.01
2019-05-02T09:56:21.978Z,31.26
2019-05-02T09:58:56.204Z,32.33
2019-05-02T10:01:22.684Z,32.83
2019-05-02T10:03:51.854Z,32.87
2019-05-02T10:06:20.621Z,32.98
2019-05-02T10:08:49.327Z,33.00
2019-05-02T10:11:22.557Z,33.41
2019-05-02T10:13:48.418Z,34.20
2019-05-02T10:16:23.600Z,33.60
2019-05-02T10:18:52.287Z,32.63
2019-05-02T10:21:22.640Z,34.73
2019-05-02T10:23:58.561Z,34.13
2019-05-02T10:26:24.455Z,33.83
2019-05-02T10:28:53.357Z,32.30
2019-05-02T10:31:22.217Z,32.45
2019-05-02T10:33:52.913Z,32.64
2019-05-02T10:36:23.923Z,32.42
2019-05-02T10:38:54.904Z,34.12
2019-05-02T10:41:22.472Z,33.82
2019-05-02T10:43:55.197Z,34.57
2019-05-02T10:46:33.488Z,34.44
2019-05-02T10:49:02.009Z,34.29
2019-05-02T10:51:34.687Z,34.71
2019-05-02T10:54:05.628Z,33.25
2019-05-02T10:56:34.275Z,32.90
2019-05-02T10:59:02.908Z,30.71
2019-05-02T11:01:33.220Z,31.21
2019-05-02T11:04:06.489Z,31.86
2019-05-02T11:06:37.238Z,32.29
2019-05-02T11:09:08.445Z,33.12
2019-05-02T11:11:37.080Z,34.23
2019-05-02T11:14:13.323Z,33.91
2019-05-02T11:16:46.138Z,31.29
2019-05-02T11:19:28.426Z,29.80
2019-05-02T11:21:59.106Z,28.12
2019-05-02T11:24:27.404Z,34.61
2019-05-02T11:26:56.047Z,46.17
2019-05-02T11:29:24.606Z,53.36
2019-05-02T11:31:53.307Z,64.68
2019-05-02T11:34:22.205Z,69.47
2019-05-02T11:36:52.722Z,78.00
2019-05-02T11:39:28.664Z,81.21
2019-05-02T11:41:52.722Z,67.32
2019-05-02T11:44:22.607Z,63.83
2019-05-02T11:46:52.177Z,55.22
2019-05-02T11:49:23.902Z,52.92
2019-05-02T11:51:56.947Z,57.13
2019-05-02T11:54:22.857Z,59.56
2019-05-02T11:56:53.565Z,58.98
2019-05-02T11:59:27.633Z,55.52
2019-05-02T12:02:09.560Z,46.77
2019-05-02T12:04:36.336Z,35.16
2019-05-02T12:07:05.218Z,31.67
2019-05-02T12:09:33.913Z,31.01
2019-05-02T12:12:02.720Z,29.57
2019-05-02T12:14:32.872Z,27.50
2019-05-02T12:17:02.587Z,25.80
2019-05-02T12:19:32.272Z,24.82
2019-05-02T12:22:02.660Z,21.94
2019-05-02T12:24:31.981Z,20.37
2019-05-02T12:27:02.544Z,20.58
2019-05-02T12:29:31.221Z,20.50
2019-05-02T12:31:59.859Z,20.26
2019-05-02T12:34:28.582Z,20.51
2019-05-02T12:36:57.210Z,19.33
2019-05-02T12:39:25.893Z,19.31
2019-05-02T12:41:54.823Z,18.52
2019-05-02T12:44:23.840Z,18.63
2019-05-02T12:46:52.553Z,18.63
2019-05-02T12:49:26.964Z,19.34
2019-05-02T12:51:52.495Z,20.41
2019-05-02T12:54:22.038Z,21.77
2019-05-02T12:56:52.759Z,23.33
2019-05-02T12:59:22.530Z,24.40
2019-05-02T13:01:51.921Z,23.77
2019-05-02T13:04:22.781Z,23.32
2019-05-02T13:06:53.078Z,21.32
2019-05-02T13:09:23.420Z,21.55
2019-05-02T13:11:56.255Z,21.26
2019-05-02T13:14:26.682Z,19.55
2019-05-02T13:17:01.222Z,18.70
2019-05-02T13:19:40.151Z,19.21
2019-05-02T13:22:18.900Z,18.62
2019-05-02T13:24:54.145Z,20.23
2019-05-02T13:27:20.176Z,18.70
2019-05-02T13:29:52.289Z,17.28
2019-05-02T13:32:32.137Z,17.90
2019-05-02T13:35:08.489Z,18.32
2019-05-02T13:37:37.193Z,19.57
2019-05-02T13:40:09.072Z,19.49
2019-05-02T13:42:37.707Z,18.86
2019-05-02T13:45:09.486Z,20.87
2019-05-02T13:47:38.139Z,20.77
2019-05-02T13:50:08.048Z,20.50
2019-05-02T13:52:36.688Z,20.66
2019-05-02T13:55:13.058Z,21.55
2019-05-02T13:57:46.741Z,21.26
2019-05-02T14:00:17.492Z,20.36
2019-05-02T14:02:46.703Z,20.92
2019-05-02T14:05:16.501Z,18.97
2019-05-02T14:07:54.254Z,18.97
2019-05-02T14:10:39.229Z,19.58
2019-05-02T14:13:04.139Z,18.98
2019-05-02T14:15:34.425Z,19.50
2019-05-02T14:18:03.145Z,18.32
2019-05-02T14:20:33.051Z,18.99
2019-05-02T14:23:02.338Z,19.38
2019-05-02T14:25:32.106Z,21.33
2019-05-02T14:28:02.907Z,21.50
2019-05-02T14:30:38.738Z,20.85
2019-05-02T14:33:03.341Z,21.69
2019-05-02T14:35:36.820Z,21.13
2019-05-02T14:38:09.364Z,20.60
2019-05-02T14:40:48.114Z,21.19
2019-05-02T14:43:18.390Z,20.92
2019-05-02T14:45:51.008Z,20.99
2019-05-02T14:48:22.226Z,20.17
2019-05-02T14:50:52.092Z,21.36
2019-05-02T14:53:22.094Z,21.24
2019-05-02T14:55:53.179Z,21.57
2019-05-02T14:58:27.150Z,21.96
2019-05-02T15:00:56.871Z,21.84
2019-05-02T15:03:28.421Z,22.04
2019-05-02T15:05:58.983Z,22.32
2019-05-02T15:08:26.323Z,21.53
2019-05-02T15:10:56.652Z,22.17
2019-05-02T15:13:25.424Z,22.20
2019-05-02T15:15:54.102Z,22.64
2019-05-02T15:18:22.846Z,22.39
2019-05-02T15:20:52.093Z,23.22
2019-05-02T15:23:22.764Z,23.43
2019-05-02T15:25:55.862Z,23.94
2019-05-02T15:28:22.819Z,23.61
2019-05-02T15:31:05.629Z,23.47
2019-05-02T15:33:38.630Z,24.38
2019-05-02T15:36:08.907Z,24.21
2019-05-02T15:38:45.568Z,24.98
2019-05-02T15:41:12.641Z,24.43
2019-05-02T15:43:39.187Z,25.58
2019-05-02T15:46:08.908Z,25.77
2019-05-02T15:48:37.536Z,25.74
2019-05-02T15:51:08.909Z,25.55
2019-05-02T15:53:48.492Z,26.53
2019-05-02T15:56:19.729Z,26.82
2019-05-02T15:58:44.915Z,27.29
2019-05-02T16:01:17.962Z,26.71
2019-05-02T16:03:48.236Z,26.92
2019-05-02T16:06:23.931Z,26.72
2019-05-02T16:08:47.274Z,26.81
2019-05-02T16:11:19.494Z,27.06
2019-05-02T16:13:52.724Z,26.99
2019-05-02T16:16:21.962Z,27.42
2019-05-02T16:18:52.640Z,27.73
2019-05-02T16:21:28.856Z,28.12
2019-05-02T16:24:14.676Z,28.51
2019-05-02T16:26:44.916Z,28.20
2019-05-02T16:29:14.906Z,29.40
2019-05-02T16:31:44.629Z,30.30
2019-05-02T16:34:15.031Z,31.16
2019-05-02T16:36:43.703Z,31.56
2019-05-02T16:39:13.633Z,31.71
2019-05-02T16:41:49.189Z,32.15
2019-05-02T16:44:13.213Z,32.67
2019-05-02T16:46:43.826Z,34.56
2019-05-02T16:49:15.667Z,35.08
2019-05-02T16:51:43.153Z,35.85
2019-05-02T16:54:12.745Z,36.85
2019-05-02T16:56:45.929Z,38.08
2019-05-02T16:59:16.868Z,38.83
2019-05-02T17:01:45.155Z,40.20
2019-05-02T17:04:13.888Z,41.72
2019-05-02T17:06:42.716Z,43.28
2019-05-02T17:09:28.699Z,44.56
2019-05-02T17:11:55.786Z,45.45
2019-05-02T17:14:24.520Z,46.90
2019-05-02T17:16:55.884Z,47.50
2019-05-02T17:19:26.177Z,48.53
2019-05-02T17:21:56.460Z,49.05
2019-05-02T17:24:26.209Z,49.74
2019-05-02T17:26:54.678Z,49.87
2019-05-02T17:29:23.366Z,51.74
2019-05-02T17:31:55.500Z,51.17
2019-05-02T17:34:30.034Z,52.30
2019-05-02T17:36:52.789Z,51.96
2019-05-02T17:39:22.330Z,52.58
2019-05-02T17:41:52.335Z,52.56
2019-05-02T17:44:24.154Z,52.58
2019-05-02T17:46:58.552Z,53.23
2019-05-02T17:49:23.897Z,54.42
2019-05-02T17:52:18.301Z,54.83
2019-05-02T17:54:42.370Z,58.09
2019-05-02T17:57:11.862Z,58.09
2019-05-02T17:59:42.190Z,59.71
2019-05-02T18:02:12.374Z,60.72
2019-05-02T18:04:41.914Z,59.92
2019-05-02T18:07:11.689Z,61.01
2019-05-02T18:09:41.855Z,61.01
2019-05-02T18:12:12.653Z,60.77
2019-05-02T18:14:42.159Z,61.26
2019-05-02T18:17:12.618Z,62.31
2019-05-02T18:19:42.594Z,62.57
2019-05-02T18:22:23.423Z,62.89
2019-05-02T18:24:42.813Z,64.31
2019-05-02T18:27:12.928Z,64.86
2019-05-02T18:29:45.375Z,65.03
2019-05-02T18:32:12.794Z,65.42
2019-05-02T18:34:41.928Z,65.96
2019-05-02T18:37:10.539Z,66.71
2019-05-02T18:39:42.618Z,67.28
2019-05-02T18:42:16.620Z,68.12
2019-05-02T18:44:48.183Z,67.76
2019-05-02T18:47:20.114Z,68.12
2019-05-02T18:49:44.893Z,68.58
2019-05-02T18:52:13.540Z,68.64
2019-05-02T18:54:44.063Z,68.72
2019-05-02T18:57:12.607Z,69.55
2019-05-02T18:59:42.680Z,69.89
2019-05-02T19:02:11.512Z,70.35
2019-05-02T19:04:42.240Z,70.52
2019-05-02T19:07:14.333Z,71.25
2019-05-02T19:09:50.423Z,70.93
2019-05-02T19:12:19.426Z,72.32
2019-05-02T19:14:44.709Z,73.04
2019-05-02T19:17:13.349Z,72.96
2019-05-02T19:19:42.068Z,73.17
2019-05-02T19:22:13.241Z,74.26
2019-05-02T19:24:41.935Z,73.21
2019-05-02T19:27:12.923Z,73.07
2019-05-02T19:29:42.456Z,72.81
2019-05-02T19:32:12.251Z,72.38
2019-05-02T19:34:41.802Z,72.36
2019-05-02T19:37:12.176Z,72.90
2019-05-02T19:39:44.684Z,72.78
2019-05-02T19:42:17.124Z,73.37
2019-05-02T19:44:44.164Z,78.37
2019-05-02T19:47:17.362Z,80.27
2019-05-02T19:49:47.313Z,82.02
2019-05-02T19:52:13.585Z,82.32
2019-05-02T19:54:43.617Z,83.47
2019-05-02T19:57:17.184Z,83.63
2019-05-02T19:59:43.900Z,82.22
2019-05-02T20:02:12.655Z,80.66
2019-05-02T20:04:42.617Z,79.77
2019-05-02T20:07:14.178Z,81.99
2019-05-02T20:09:46.064Z,82.72
2019-05-02T20:12:15.604Z,81.49
2019-05-02T20:14:47.506Z,80.04
2019-05-02T20:17:20.209Z,81.17
2019-05-02T20:19:47.583Z,83.51
2019-05-02T20:22:16.395Z,90.11
2019-05-02T20:24:55.566Z,92.90
2019-05-02T20:27:23.141Z,96.23
2019-05-02T20:29:52.239Z,100.00
2019-05-02T20:32:22.083Z,100.00
2019-05-02T20:34:51.022Z,100.00
2019-05-02T20:37:21.924Z,100.00
2019-05-02T20:39:50.085Z,100.00
2019-05-02T20:42:18.737Z,100.00
2019-05-02T20:44:47.380Z,100.00
2019-05-02T20:47:18.983Z,100.00
2019-05-02T20:49:47.620Z,100.00
2019-05-02T20:52:16.271Z,100.00
2019-05-02T20:54:44.925Z,100.00
2019-05-02T20:57:13.563Z,100.00
2019-05-02T20:59:42.215Z,99.50
2019-05-02T21:02:13.752Z,94.86
2019-05-02T21:04:42.641Z,89.91
2019-05-02T21:07:15.840Z,85.08
2019-05-02T21:09:52.513Z,81.03
2019-05-02T21:12:21.452Z,78.82
2019-05-02T21:14:52.199Z,79.71
2019-05-02T21:17:22.095Z,78.91
2019-05-02T21:19:50.831Z,77.85
2019-05-02T21:22:22.400Z,77.75
2019-05-02T21:24:53.727Z,82.19
2019-05-02T21:27:22.413Z,84.38
2019-05-02T21:29:52.248Z,87.88
2019-05-02T21:32:22.870Z,85.67
2019-05-02T21:34:52.050Z,85.23
2019-05-02T21:37:22.599Z,84.36
2019-05-02T21:39:52.043Z,83.77
2019-05-02T21:42:22.583Z,86.46
2019-05-02T21:44:51.767Z,87.55
2019-05-02T21:47:22.321Z,90.04
2019-05-02T21:50:08.558Z,89.45
2019-05-02T21:52:38.762Z,88.69
2019-05-02T21:55:25.661Z,88.80
2019-05-02T21:57:54.304Z,88.83
2019-05-02T22:00:26.833Z,90.83
2019-05-02T22:02:55.466Z,95.93
2019-05-02T22:05:24.114Z,100.00
2019-05-02T22:07:52.763Z,100.00
2019-05-02T22:10:22.731Z,100.00
2019-05-02T22:12:53.884Z,100.00
2019-05-02T22:15:22.463Z,100.00
2019-05-02T22:17:52.285Z,100.00
2019-05-02T22:20:22.877Z,100.00
2019-05-02T22:22:52.039Z,100.00
2019-05-02T22:25:22.167Z,100.00
2019-05-02T22:27:53.880Z,100.00
2019-05-02T22:30:21.974Z,100.00
2019-05-02T22:32:51.704Z,100.00
2019-05-02T22:35:21.661Z,100.00
2019-05-02T22:37:52.155Z,100.00
2019-05-02T22:40:21.801Z,100.00
2019-05-02T22:42:52.344Z,100.00
2019-05-02T22:45:21.811Z,100.00
2019-05-02T22:47:52.051Z,99.33
2019-05-02T22:50:22.026Z,97.85
2019-05-02T22:52:52.231Z,97.52
2019-05-02T22:55:22.582Z,97.03
2019-05-02T22:57:51.808Z,95.71
2019-05-02T23:00:21.691Z,95.06
2019-05-02T23:02:52.374Z,92.34
2019-05-02T23:05:20.814Z,91.78
2019-05-02T23:07:49.499Z,91.70
2019-05-02T23:10:18.135Z,93.65
2019-05-02T23:12:46.717Z,96.92
2019-05-02T23:15:15.356Z,96.96
2019-05-02T23:17:43.995Z,96.86
2019-05-02T23:20:12.969Z,98.56
2019-05-02T23:22:41.887Z,100.00
2019-05-02T23:25:14.280Z,100.00
2019-05-02T23:27:47.056Z,100.00
2019-05-02T23:30:17.591Z,100.00
2019-05-02T23:32:46.241Z,100.00
2019-05-02T23:35:14.893Z,100.00
2019-05-02T23:37:43.546Z,100.00
2019-05-02T23:40:12.505Z,100.00
2019-05-02T23:42:41.726Z,100.00
2019-05-02T23:45:12.119Z,100.00
2019-05-02T23:47:42.149Z,100.00
2019-05-02T23:50:12.156Z,100.00
2019-05-02T23:52:40.841Z,100.00
2019-05-02T23:55:09.641Z,100.00
2019-05-02T23:57:38.284Z,100.00
